createdAt,value
2023-05-21T00:01:49.562Z,100877.66
2023-05-21T00:04:15.959Z,100884.66
2023-05-21T00:06:42.409Z,100884.81
2023-05-21T00:09:08.841Z,100884.81
2023-05-21T00:11:35.413Z,100885.84
2023-05-21T00:14:01.844Z,100880.84
2023-05-21T00:16:28.395Z,100875.69
2023-05-21T00:18:59.685Z,100880.84
2023-05-21T00:21:26.348Z,100875.69
2023-05-21T00:23:52.880Z,100873.41
2023-05-21T00:26:19.265Z,100871.44
2023-05-21T00:28:45.776Z,100871.59
2023-05-21T00:31:12.175Z,100869.91
2023-05-21T00:33:38.574Z,100868.38
2023-05-21T00:36:05.009Z,100869.16
2023-05-21T00:38:31.404Z,100866.72
2023-05-21T00:40:57.750Z,100866.84
2023-05-21T00:43:24.120Z,100857.91
2023-05-21T00:45:50.485Z,100854.72
2023-05-21T00:48:16.907Z,100857.44
2023-05-21T00:50:43.276Z,100846.22
2023-05-21T00:53:09.662Z,100846.97
2023-05-21T00:55:36.264Z,100855.47
2023-05-21T00:58:02.784Z,100848.03
2023-05-21T01:00:29.184Z,100844.53
2023-05-21T01:02:55.592Z,100845.28
2023-05-21T01:05:22.007Z,100843.75
2023-05-21T01:07:48.455Z,100842.25
2023-05-21T01:10:14.875Z,100850.00
2023-05-21T01:12:41.284Z,100834.50
2023-05-21T01:15:07.669Z,100840.59
2023-05-21T01:17:34.224Z,100839.97
2023-05-21T01:20:00.766Z,100839.97
2023-05-21T01:22:27.217Z,100840.88
2023-05-21T01:24:53.616Z,100844.22
2023-05-21T01:27:20.085Z,100845.44
2023-05-21T01:29:46.462Z,100852.88
2023-05-21T01:32:13.330Z,100846.22
2023-05-21T01:34:39.854Z,100853.03
2023-05-21T01:37:06.584Z,100850.91
2023-05-21T01:39:33.015Z,100852.44
2023-05-21T01:41:59.395Z,100850.16
2023-05-21T01:44:25.769Z,100845.13
2023-05-21T01:46:52.197Z,100848.78
2023-05-21T01:49:18.670Z,100847.13
2023-05-21T01:51:45.033Z,100843.91
2023-05-21T01:54:11.412Z,100838.91
2023-05-21T01:56:37.975Z,100841.34
2023-05-21T01:59:04.409Z,100843.16
2023-05-21T02:01:30.932Z,100844.84
2023-05-21T02:03:57.449Z,100845.13
2023-05-21T02:06:24.042Z,100843.47
2023-05-21T02:08:50.449Z,100843.91
2023-05-21T02:11:17.092Z,100848.00
2023-05-21T02:13:43.517Z,100844.84
2023-05-21T02:16:10.036Z,100840.88
2023-05-21T02:18:36.512Z,100847.28
2023-05-21T02:21:02.960Z,100836.63
2023-05-21T02:23:29.375Z,100843.91
2023-05-21T02:25:55.756Z,100852.13
2023-05-21T02:28:23.949Z,100852.75
2023-05-21T02:30:50.389Z,100849.38
2023-05-21T02:33:16.761Z,100849.53
2023-05-21T02:35:43.122Z,100847.13
2023-05-21T02:38:09.508Z,100853.81
2023-05-21T02:40:35.901Z,100849.53
2023-05-21T02:43:02.307Z,100842.69
2023-05-21T02:45:28.888Z,100851.22
2023-05-21T02:47:55.340Z,100844.06
2023-05-21T02:50:21.755Z,100849.53
2023-05-21T02:52:48.255Z,100841.94
2023-05-21T02:55:14.648Z,100851.22
2023-05-21T02:57:41.023Z,100849.25
2023-05-21T03:00:07.489Z,100850.31
2023-05-21T03:02:33.960Z,100845.75
2023-05-21T03:05:00.439Z,100837.53
2023-05-21T03:07:26.818Z,100836.00
2023-05-21T03:09:53.292Z,100832.97
2023-05-21T03:12:19.723Z,100843.78
2023-05-21T03:14:46.113Z,100843.31
2023-05-21T03:17:12.517Z,100852.75
2023-05-21T03:19:38.878Z,100847.88
2023-05-21T03:22:05.256Z,100849.69
2023-05-21T03:24:31.654Z,100852.75
2023-05-21T03:26:58.057Z,100856.22
2023-05-21T03:29:24.436Z,100858.94
2023-05-21T03:31:50.953Z,100857.91
2023-05-21T03:34:17.441Z,100864.56
2023-05-21T03:36:43.811Z,100862.31
2023-05-21T03:39:10.162Z,100855.63
2023-05-21T03:41:36.683Z,100851.22
2023-05-21T03:44:03.088Z,100855.16
2023-05-21T03:46:29.478Z,100852.13
2023-05-21T03:48:55.921Z,100857.59
2023-05-21T03:51:22.292Z,100853.63
2023-05-21T03:53:48.655Z,100856.38
2023-05-21T03:56:15.047Z,100861.41
2023-05-21T03:58:41.473Z,100873.09
2023-05-21T04:01:07.879Z,100860.63
2023-05-21T04:03:34.481Z,100860.50
2023-05-21T04:06:01.022Z,100874.00
2023-05-21T04:08:27.468Z,100862.75
2023-05-21T04:10:53.890Z,100881.91
2023-05-21T04:13:20.311Z,100882.66
2023-05-21T04:15:47.012Z,100872.94
2023-05-21T04:18:13.558Z,100878.72
2023-05-21T04:20:40.298Z,100878.88
2023-05-21T04:23:06.710Z,100884.19
2023-05-21T04:25:33.191Z,100878.72
2023-05-21T04:27:59.613Z,100887.69
2023-05-21T04:30:26.459Z,100888.91
2023-05-21T04:32:53.033Z,100890.44
2023-05-21T04:35:19.422Z,100891.94
2023-05-21T04:37:45.805Z,100883.72
2023-05-21T04:40:12.190Z,100891.63
2023-05-21T04:42:38.555Z,100882.66
2023-05-21T04:45:05.206Z,100891.63
2023-05-21T04:47:31.641Z,100888.13
2023-05-21T04:49:57.999Z,100893.59
2023-05-21T04:52:24.353Z,100896.66
2023-05-21T04:54:50.727Z,100904.41
2023-05-21T04:57:17.203Z,100897.88
2023-05-21T04:59:43.571Z,100894.22
2023-05-21T05:02:10.002Z,100894.66
2023-05-21T05:04:36.414Z,100894.66
2023-05-21T05:07:02.997Z,100893.78
2023-05-21T05:09:29.368Z,100890.72
2023-05-21T05:11:55.748Z,100880.97
2023-05-21T05:14:22.155Z,100885.72
2023-05-21T05:16:48.612Z,100890.72
2023-05-21T05:19:15.121Z,100889.81
2023-05-21T05:21:41.555Z,100891.78
2023-05-21T05:24:08.060Z,100892.53
2023-05-21T05:26:34.478Z,100884.34
2023-05-21T05:29:00.938Z,100894.06
2023-05-21T05:31:27.334Z,100892.88
2023-05-21T05:33:53.737Z,100896.81
2023-05-21T05:36:20.137Z,100897.09
2023-05-21T05:38:46.517Z,100890.13
2023-05-21T05:41:12.936Z,100894.69
2023-05-21T05:43:39.338Z,100902.91
2023-05-21T05:46:05.766Z,100902.41
2023-05-21T05:48:32.327Z,100903.94
2023-05-21T05:50:58.823Z,100891.19
2023-05-21T05:53:25.191Z,100901.97
2023-05-21T05:55:51.610Z,100897.72
2023-05-21T05:58:18.063Z,100901.22
2023-05-21T06:00:44.458Z,100893.78
2023-05-21T06:03:10.956Z,100897.56
2023-05-21T06:05:37.749Z,100895.31
2023-05-21T06:08:04.352Z,100890.59
2023-05-21T06:10:30.837Z,100892.09
2023-05-21T06:12:57.257Z,100896.94
2023-05-21T06:15:23.669Z,100902.59
2023-05-21T06:17:50.099Z,100895.31
2023-05-21T06:20:16.482Z,100895.59
2023-05-21T06:22:42.851Z,100895.75
2023-05-21T06:25:09.310Z,100886.00
2023-05-21T06:27:36.845Z,100886.47
2023-05-21T06:30:03.335Z,100886.94
2023-05-21T06:32:29.842Z,100898.50
2023-05-21T06:34:56.315Z,100906.09
2023-05-21T06:37:24.298Z,100912.19
2023-05-21T06:39:52.405Z,100901.38
2023-05-21T06:42:18.821Z,100909.75
2023-05-21T06:44:45.344Z,100906.56
2023-05-21T06:47:11.766Z,100899.84
2023-05-21T06:49:38.169Z,100898.94
2023-05-21T06:52:04.524Z,100897.44
2023-05-21T06:54:30.955Z,100901.53
2023-05-21T06:56:57.361Z,100902.59
2023-05-21T06:59:23.750Z,100897.13
2023-05-21T07:01:50.273Z,100893.78
2023-05-21T07:04:17.080Z,100897.28
2023-05-21T07:06:43.672Z,100900.94
2023-05-21T07:09:10.094Z,100897.59
2023-05-21T07:11:36.514Z,100896.81
2023-05-21T07:14:02.892Z,100902.91
2023-05-21T07:16:29.322Z,100894.09
2023-05-21T07:18:55.773Z,100906.53
2023-05-21T07:21:22.194Z,100899.38
2023-05-21T07:23:48.615Z,100901.03
2023-05-21T07:26:15.055Z,100900.88
2023-05-21T07:28:41.469Z,100902.44
2023-05-21T07:31:07.956Z,100904.84
2023-05-21T07:33:34.538Z,100895.38
2023-05-21T07:36:00.951Z,100901.78
2023-05-21T07:38:27.421Z,100888.69
2023-05-21T07:40:53.789Z,100895.38
2023-05-21T07:43:20.169Z,100898.41
2023-05-21T07:45:46.622Z,100897.47
2023-05-21T07:48:12.978Z,100890.47
2023-05-21T07:50:39.380Z,100899.56
2023-05-21T07:53:06.028Z,100903.66
2023-05-21T07:55:32.435Z,100898.94
2023-05-21T07:57:58.845Z,100895.75
2023-05-21T08:00:25.254Z,100891.34
2023-05-21T08:02:51.708Z,100897.41
2023-05-21T08:05:18.260Z,100896.78
2023-05-21T08:07:44.687Z,100898.59
2023-05-21T08:10:11.061Z,100892.59
2023-05-21T08:12:37.472Z,100885.75
2023-05-21T08:15:03.842Z,100892.00
2023-05-21T08:17:30.431Z,100888.41
2023-05-21T08:19:56.820Z,100896.00
2023-05-21T08:22:23.181Z,100894.59
2023-05-21T08:24:49.604Z,100895.34
2023-05-21T08:27:16.059Z,100895.69
2023-05-21T08:29:42.437Z,100888.09
2023-05-21T08:32:08.944Z,100872.66
2023-05-21T08:34:35.438Z,100873.84
2023-05-21T08:37:01.800Z,100869.88
2023-05-21T08:39:28.163Z,100862.69
2023-05-21T08:41:54.543Z,100874.69
2023-05-21T08:44:21.019Z,100875.88
2023-05-21T08:46:47.376Z,100877.19
2023-05-21T08:49:13.783Z,100875.22
2023-05-21T08:51:40.259Z,100873.47
2023-05-21T08:54:06.720Z,100875.75
2023-05-21T08:56:33.099Z,100874.84
2023-05-21T08:58:59.462Z,100857.84
2023-05-21T09:01:26.641Z,100872.72
2023-05-21T09:03:54.541Z,100876.69
2023-05-21T09:06:25.662Z,100872.59
2023-05-21T09:08:52.077Z,100866.00
2023-05-21T09:11:18.452Z,100863.78
2023-05-21T09:13:44.819Z,100872.19
2023-05-21T09:16:11.213Z,100866.19
2023-05-21T09:18:37.884Z,100879.28
2023-05-21T09:21:04.327Z,100865.25
2023-05-21T09:23:30.829Z,100856.56
2023-05-21T09:25:57.315Z,100877.50
2023-05-21T09:28:23.664Z,100863.97
2023-05-21T09:30:50.059Z,100868.94
2023-05-21T09:33:16.420Z,100865.72
2023-05-21T09:35:42.775Z,100869.91
2023-05-21T09:38:09.134Z,100875.41
2023-05-21T09:40:35.803Z,100871.50
2023-05-21T09:43:02.610Z,100868.41
2023-05-21T09:45:29.009Z,100864.25
2023-05-21T09:47:55.432Z,100873.47
2023-05-21T09:50:21.929Z,100868.66
2023-05-21T09:52:48.337Z,100868.59
2023-05-21T09:55:14.855Z,100858.41
2023-05-21T09:57:41.325Z,100853.34
2023-05-21T10:00:07.702Z,100844.69
2023-05-21T10:02:34.090Z,100858.59
2023-05-21T10:05:00.466Z,100856.50
2023-05-21T10:07:26.915Z,100842.88
2023-05-21T10:09:53.565Z,100844.69
2023-05-21T10:12:19.949Z,100846.16
2023-05-21T10:14:46.301Z,100843.66
2023-05-21T10:17:12.654Z,100846.81
2023-05-21T10:19:39.013Z,100842.84
2023-05-21T10:22:05.421Z,100847.94
2023-05-21T10:24:32.062Z,100843.38
2023-05-21T10:26:58.469Z,100849.22
2023-05-21T10:29:24.903Z,100848.09
2023-05-21T10:31:51.323Z,100834.22
2023-05-21T10:34:17.749Z,100836.13
2023-05-21T10:36:44.152Z,100841.88
2023-05-21T10:39:10.560Z,100838.06
2023-05-21T10:41:36.959Z,100843.41
2023-05-21T10:44:03.485Z,100842.31
2023-05-21T10:46:29.861Z,100840.16
2023-05-21T10:48:56.368Z,100839.72
2023-05-21T10:51:22.789Z,100837.13
2023-05-21T10:53:49.632Z,100830.13
2023-05-21T10:56:16.011Z,100832.69
2023-05-21T10:58:42.412Z,100827.84
2023-05-21T11:01:08.874Z,100827.56
2023-05-21T11:03:37.761Z,100826.34
2023-05-21T11:06:04.485Z,100825.88
2023-05-21T11:08:30.859Z,100820.69
2023-05-21T11:10:57.216Z,100823.44
2023-05-21T11:13:23.654Z,100819.06
2023-05-21T11:15:50.092Z,100821.03
2023-05-21T11:18:16.478Z,100821.31
2023-05-21T11:20:42.840Z,100816.13
2023-05-21T11:23:09.408Z,100815.38
2023-05-21T11:25:35.832Z,100806.38
2023-05-21T11:28:02.262Z,100813.56
2023-05-21T11:30:28.685Z,100811.28
2023-05-21T11:32:55.216Z,100807.00
2023-05-21T11:35:21.654Z,100802.28
2023-05-21T11:37:48.164Z,100804.09
2023-05-21T11:40:14.566Z,100800.50
2023-05-21T11:42:40.946Z,100806.09
2023-05-21T11:45:07.422Z,100803.13
2023-05-21T11:47:33.909Z,100806.91
2023-05-21T11:50:00.380Z,100799.44
2023-05-21T11:52:26.907Z,100798.97
2023-05-21T11:54:53.340Z,100781.47
2023-05-21T11:57:19.942Z,100795.47
2023-05-21T11:59:46.362Z,100792.63
2023-05-21T12:02:12.739Z,100785.50
2023-05-21T12:04:39.143Z,100795.81
2023-05-21T12:07:05.534Z,100791.50
2023-05-21T12:09:31.974Z,100794.31
2023-05-21T12:11:58.340Z,100791.56
2023-05-21T12:14:24.887Z,100790.03
2023-05-21T12:16:51.429Z,100790.50
2023-05-21T12:19:17.902Z,100798.72
2023-05-21T12:21:44.389Z,100792.50
2023-05-21T12:24:10.792Z,100789.19
2023-05-21T12:26:37.368Z,100797.22
2023-05-21T12:29:03.777Z,100798.00
2023-05-21T12:31:30.266Z,100798.63
2023-05-21T12:33:56.832Z,100782.94
2023-05-21T12:36:23.207Z,100776.06
2023-05-21T12:38:49.688Z,100780.66
2023-05-21T12:41:16.048Z,100769.53
2023-05-21T12:43:42.557Z,100767.91
2023-05-21T12:46:09.183Z,100780.97
2023-05-21T12:48:35.664Z,100771.34
2023-05-21T12:51:02.459Z,100769.38
2023-05-21T12:53:29.144Z,100769.22
2023-05-21T12:55:55.780Z,100776.84
2023-05-21T12:58:22.421Z,100775.56
2023-05-21T13:00:48.823Z,100773.50
2023-05-21T13:03:15.270Z,100770.44
2023-05-21T13:05:41.690Z,100777.72
2023-05-21T13:08:08.066Z,100775.16
2023-05-21T13:10:34.754Z,100777.59
2023-05-21T13:13:01.670Z,100776.84
2023-05-21T13:15:28.127Z,100771.06
2023-05-21T13:17:56.822Z,100770.31
2023-05-21T13:20:23.567Z,100774.72
2023-05-21T13:22:49.969Z,100765.56
2023-05-21T13:25:16.403Z,100773.66
2023-05-21T13:27:42.799Z,100771.22
2023-05-21T13:30:09.177Z,100764.34
2023-05-21T13:32:35.651Z,100761.78
2023-05-21T13:35:02.153Z,100771.97
2023-05-21T13:37:28.559Z,100765.09
2023-05-21T13:39:54.940Z,100760.56
2023-05-21T13:42:21.359Z,100772.75
2023-05-21T13:44:47.749Z,100761.78
2023-05-21T13:47:14.155Z,100767.84
2023-05-21T13:49:40.547Z,100778.69
2023-05-21T13:52:07.011Z,100770.13
2023-05-21T13:54:33.428Z,100770.13
2023-05-21T13:56:59.874Z,100755.09
2023-05-21T13:59:26.266Z,100746.25
2023-05-21T14:01:52.749Z,100755.97
2023-05-21T14:04:19.140Z,100757.66
2023-05-21T14:06:45.662Z,100755.66
2023-05-21T14:09:12.181Z,100758.59
2023-05-21T14:11:38.579Z,100759.63
2023-05-21T14:14:04.940Z,100750.66
2023-05-21T14:16:31.417Z,100756.88
2023-05-21T14:18:57.873Z,100750.66
2023-05-21T14:21:24.285Z,100761.31
2023-05-21T14:23:50.710Z,100751.88
2023-05-21T14:26:17.103Z,100757.81
2023-05-21T14:28:43.468Z,100767.75
2023-05-21T14:31:09.855Z,100762.84
2023-05-21T14:33:36.253Z,100757.06
2023-05-21T14:36:02.609Z,100759.63
2023-05-21T14:38:28.994Z,100763.59
2023-05-21T14:40:55.411Z,100758.09
2023-05-21T14:43:21.831Z,100754.75
2023-05-21T14:45:48.218Z,100750.94
2023-05-21T14:48:14.608Z,100744.72
2023-05-21T14:50:40.975Z,100754.16
2023-05-21T14:53:07.367Z,100754.91
2023-05-21T14:55:35.408Z,100742.41
2023-05-21T14:58:03.244Z,100750.50
2023-05-21T15:00:29.612Z,100746.09
2023-05-21T15:02:57.326Z,100748.84
2023-05-21T15:05:23.973Z,100747.91
2023-05-21T15:07:50.380Z,100744.56
2023-05-21T15:10:18.559Z,100743.06
2023-05-21T15:12:45.146Z,100740.94
2023-05-21T15:15:11.534Z,100752.63
2023-05-21T15:17:37.942Z,100749.59
2023-05-21T15:20:04.366Z,100754.91
2023-05-21T15:22:30.806Z,100747.44
2023-05-21T15:24:57.298Z,100738.78
2023-05-21T15:27:23.667Z,100743.53
2023-05-21T15:29:50.377Z,100744.41
2023-05-21T15:32:16.740Z,100744.25
2023-05-21T15:34:43.302Z,100744.72
2023-05-21T15:37:09.873Z,100740.00
2023-05-21T15:39:36.281Z,100751.13
2023-05-21T15:42:02.709Z,100748.66
2023-05-21T15:44:29.155Z,100744.41
2023-05-21T15:46:55.588Z,100741.38
2023-05-21T15:49:21.988Z,100736.94
2023-05-21T15:51:48.388Z,100745.91
2023-05-21T15:54:14.808Z,100747.13
2023-05-21T15:56:41.223Z,100743.66
2023-05-21T15:59:07.636Z,100734.38
2023-05-21T16:01:34.068Z,100730.41
2023-05-21T16:04:00.560Z,100746.88
2023-05-21T16:06:26.984Z,100742.91
2023-05-21T16:08:53.414Z,100741.84
2023-05-21T16:11:19.777Z,100738.91
2023-05-21T16:13:46.203Z,100742.91
2023-05-21T16:16:12.649Z,100746.09
2023-05-21T16:18:39.046Z,100752.06
2023-05-21T16:21:05.487Z,100754.81
2023-05-21T16:23:31.913Z,100746.59
2023-05-21T16:25:58.286Z,100746.59
2023-05-21T16:28:24.750Z,100752.06
2023-05-21T16:30:51.125Z,100746.88
2023-05-21T16:33:17.499Z,100748.72
2023-05-21T16:35:43.954Z,100753.56
2023-05-21T16:38:10.305Z,100751.31
2023-05-21T16:40:36.790Z,100754.50
2023-05-21T16:43:03.459Z,100753.28
2023-05-21T16:45:29.914Z,100760.09
2023-05-21T16:47:56.405Z,100761.78
2023-05-21T16:50:22.839Z,100762.88
2023-05-21T16:52:49.430Z,100760.72
2023-05-21T16:55:15.854Z,100757.72
2023-05-21T16:57:42.281Z,100748.25
2023-05-21T17:00:08.779Z,100753.28
2023-05-21T17:02:35.270Z,100758.00
2023-05-21T17:05:01.698Z,100758.75
2023-05-21T17:07:28.088Z,100754.22
2023-05-21T17:09:54.651Z,100757.22
2023-05-21T17:12:21.158Z,100756.47
2023-05-21T17:14:47.609Z,100760.72
2023-05-21T17:17:13.979Z,100758.75
2023-05-21T17:19:41.070Z,100756.28
2023-05-21T17:22:08.437Z,100759.03
2023-05-21T17:24:34.819Z,100749.16
2023-05-21T17:27:01.198Z,100756.59
2023-05-21T17:29:27.813Z,100759.34
2023-05-21T17:31:54.367Z,100767.09
2023-05-21T17:34:21.039Z,100765.28
2023-05-21T17:36:47.425Z,100768.69
2023-05-21T17:39:13.839Z,100765.44
2023-05-21T17:41:40.213Z,100770.16
2023-05-21T17:44:06.699Z,100774.91
2023-05-21T17:46:33.142Z,100766.88
2023-05-21T17:48:59.621Z,100782.06
2023-05-21T17:51:26.049Z,100776.00
2023-05-21T17:53:52.442Z,100772.97
2023-05-21T17:56:18.800Z,100770.22
2023-05-21T17:58:45.271Z,100782.41
2023-05-21T18:01:11.700Z,100782.41
2023-05-21T18:03:38.123Z,100786.50
2023-05-21T18:06:04.985Z,100783.66
2023-05-21T18:08:31.592Z,100797.34
2023-05-21T18:10:57.980Z,100796.28
2023-05-21T18:13:24.469Z,100804.50
2023-05-21T18:15:50.906Z,100793.09
2023-05-21T18:18:19.842Z,100789.28
2023-05-21T18:20:47.170Z,100798.56
2023-05-21T18:23:13.589Z,100794.88
2023-05-21T18:25:39.953Z,100790.94
2023-05-21T18:28:06.354Z,100794.13
2023-05-21T18:30:32.723Z,100799.16
2023-05-21T18:32:59.149Z,100807.81
2023-05-21T18:35:25.654Z,100803.09
2023-05-21T18:37:52.023Z,100798.69
2023-05-21T18:40:18.467Z,100806.63
2023-05-21T18:42:44.916Z,100807.72
2023-05-21T18:45:11.338Z,100807.81
2023-05-21T18:47:37.757Z,100816.81
2023-05-21T18:50:04.125Z,100809.03
2023-05-21T18:52:30.492Z,100814.53
2023-05-21T18:54:56.980Z,100820.00
2023-05-21T18:57:23.376Z,100815.28
2023-05-21T18:59:49.832Z,100820.00
2023-05-21T19:02:16.298Z,100832.97
2023-05-21T19:04:42.658Z,100822.00
2023-05-21T19:07:09.020Z,100828.09
2023-05-21T19:09:35.456Z,100834.34
2023-05-21T19:12:01.867Z,100831.59
2023-05-21T19:14:28.438Z,100843.31
2023-05-21T19:16:54.874Z,100836.78
2023-05-21T19:19:21.317Z,100837.69
2023-05-21T19:21:47.717Z,100839.22
2023-05-21T19:24:14.146Z,100839.66
2023-05-21T19:26:40.584Z,100835.28
2023-05-21T19:29:07.121Z,100838.31
2023-05-21T19:31:33.555Z,100839.69
2023-05-21T19:33:59.967Z,100841.81
2023-05-21T19:36:29.085Z,100847.28
2023-05-21T19:38:57.218Z,100842.56
2023-05-21T19:41:23.629Z,100840.00
2023-05-21T19:43:50.057Z,100846.53
2023-05-21T19:46:19.847Z,100853.22
2023-05-21T19:48:46.912Z,100851.22
2023-05-21T19:51:13.318Z,100848.66
2023-05-21T19:53:39.719Z,100852.75
2023-05-21T19:56:06.353Z,100851.88
2023-05-21T19:58:32.794Z,100853.97
2023-05-21T20:00:59.329Z,100859.16
2023-05-21T20:03:26.016Z,100860.22
2023-05-21T20:05:52.407Z,100862.97
2023-05-21T20:08:18.772Z,100862.06
2023-05-21T20:10:45.177Z,100870.44
2023-05-21T20:13:11.593Z,100874.06
2023-05-21T20:15:38.020Z,100881.53
2023-05-21T20:18:04.453Z,100879.72
2023-05-21T20:20:30.891Z,100882.00
2023-05-21T20:22:57.358Z,100886.25
2023-05-21T20:25:23.784Z,100882.16
2023-05-21T20:27:50.218Z,100886.72
2023-05-21T20:30:16.617Z,100880.94
2023-05-21T20:32:43.101Z,100890.50
2023-05-21T20:35:09.532Z,100893.72
2023-05-21T20:37:35.900Z,100889.47
2023-05-21T20:40:02.340Z,100898.72
2023-05-21T20:42:28.765Z,100901.19
2023-05-21T20:44:55.229Z,100903.16
2023-05-21T20:47:21.627Z,100903.16
2023-05-21T20:49:48.114Z,100897.22
2023-05-21T20:52:14.556Z,100891.72
2023-05-21T20:54:40.930Z,100894.63
2023-05-21T20:57:07.300Z,100898.28
2023-05-21T20:59:33.689Z,100897.09
2023-05-21T21:02:00.176Z,100900.88
2023-05-21T21:04:26.568Z,100899.38
2023-05-21T21:06:52.946Z,100895.25
2023-05-21T21:09:19.313Z,100900.09
2023-05-21T21:11:45.707Z,100894.34
2023-05-21T21:14:12.111Z,100900.75
2023-05-21T21:16:38.583Z,100895.09
2023-05-21T21:19:05.205Z,100892.38
2023-05-21T21:21:31.784Z,100894.94
2023-05-21T21:23:58.314Z,100896.03
2023-05-21T21:26:24.823Z,100897.69
2023-05-21T21:28:51.242Z,100894.34
2023-05-21T21:31:17.626Z,100906.22
2023-05-21T21:33:44.058Z,100895.88
2023-05-21T21:36:10.530Z,100903.78
2023-05-21T21:38:36.968Z,100905.00
2023-05-21T21:41:03.377Z,100898.28
2023-05-21T21:43:29.795Z,100899.97
2023-05-21T21:45:56.178Z,100902.28
2023-05-21T21:48:22.581Z,100902.28
2023-05-21T21:50:48.992Z,100900.44
2023-05-21T21:53:15.408Z,100900.59
2023-05-21T21:55:41.842Z,100906.06
2023-05-21T21:58:08.503Z,100900.13
2023-05-21T22:00:34.926Z,100903.16
2023-05-21T22:03:01.390Z,100904.69
2023-05-21T22:05:27.841Z,100907.44
2023-05-21T22:07:54.236Z,100907.44
2023-05-21T22:10:20.627Z,100912.63
2023-05-21T22:12:47.016Z,100910.94
2023-05-21T22:15:13.401Z,100916.41
2023-05-21T22:17:40.005Z,100906.38
2023-05-21T22:20:06.606Z,100915.97
2023-05-21T22:22:32.999Z,100908.81
2023-05-21T22:24:59.428Z,100911.69
2023-05-21T22:27:25.857Z,100908.06
2023-05-21T22:29:52.309Z,100903.94
2023-05-21T22:32:18.786Z,100904.84
2023-05-21T22:34:45.291Z,100914.00
2023-05-21T22:37:11.711Z,100905.63
2023-05-21T22:39:38.088Z,100905.16
2023-05-21T22:42:04.495Z,100903.31
2023-05-21T22:44:30.871Z,100909.41
2023-05-21T22:46:57.283Z,100903.47
2023-05-21T22:49:23.726Z,100911.09
2023-05-21T22:51:50.127Z,100907.75
2023-05-21T22:54:16.630Z,100916.28
2023-05-21T22:56:43.103Z,100916.28
2023-05-21T22:59:09.607Z,100909.28
2023-05-21T23:01:36.016Z,100919.47
2023-05-21T23:04:02.387Z,100918.25
2023-05-21T23:06:28.787Z,100920.53
2023-05-21T23:08:55.280Z,100925.25
2023-05-21T23:11:21.703Z,100919.91
2023-05-21T23:13:48.068Z,100918.72
2023-05-21T23:16:14.494Z,100917.50
2023-05-21T23:18:40.919Z,100918.09
2023-05-21T23:21:07.331Z,100916.44
2023-05-21T23:23:33.760Z,100922.66
2023-05-21T23:26:00.132Z,100916.88
2023-05-21T23:28:26.545Z,100916.44
2023-05-21T23:30:52.944Z,100907.91
2023-05-21T23:33:19.354Z,100911.41
2023-05-21T23:35:45.792Z,100917.38
2023-05-21T23:38:12.212Z,100917.81
2023-05-21T23:40:38.833Z,100918.41
2023-05-21T23:43:05.417Z,100909.59
2023-05-21T23:45:31.873Z,100918.09
2023-05-21T23:47:58.396Z,100910.66
2023-05-21T23:50:24.828Z,100917.38
2023-05-21T23:52:51.333Z,100913.09
2023-05-21T23:55:17.705Z,100914.31
2023-05-21T23:57:44.093Z,100903.34
